Time;durP1;ratioP1;P1;durP2;ratioP2;P2;SDS_P1;SDS_P2;PMS_P1;PMS_P2;Temp;Humidity;BMP_temperature;BMP_pressure;BME280_temperature;BME280_humidity;BME280_pressure;Samples;Min_cycle;Max_cycle;Signal;HPM_P1;HPM_P2
2023/05/21 00:02:42;;;;;;;5.43;4.93;;;23.10;85.00;;;;;;6275074;27;89096;-64
2023/05/21 00:05:45;;;;;;;5.65;5.13;;;23.10;85.00;;;;;;6269167;27;90607;-64
2023/05/21 00:08:47;;;;;;;5.50;5.00;;;23.10;85.10;;;;;;6271186;27;88958;-64
2023/05/21 00:11:49;;;;;;;5.53;5.00;;;23.10;85.20;;;;;;6275767;27;89196;-64
2023/05/21 00:14:53;;;;;;;6.53;5.65;;;23.10;85.20;;;;;;6285295;27;89470;-64
2023/05/21 00:17:55;;;;;;;6.03;5.43;;;23.10;85.40;;;;;;6263322;27;87993;-64
2023/05/21 00:20:58;;;;;;;5.72;5.22;;;23.10;85.40;;;;;;6275167;27;88348;-64
2023/05/21 00:24:00;;;;;;;5.53;5.03;;;23.10;85.50;;;;;;6266203;27;89197;-64
2023/05/21 00:27:02;;;;;;;6.05;5.38;;;23.10;85.60;;;;;;6272579;27;89132;-64
2023/05/21 00:30:06;;;;;;;6.05;5.50;;;23.00;85.70;;;;;;6280565;27;90153;-64
2023/05/21 00:33:09;;;;;;;5.72;5.13;;;23.00;85.80;;;;;;6283493;27;89050;-64
2023/05/21 00:36:13;;;;;;;6.43;5.82;;;23.00;85.90;;;;;;6263481;27;89076;-65
2023/05/21 00:39:15;;;;;;;5.63;5.22;;;23.00;85.90;;;;;;6271487;27;89639;-64
2023/05/21 00:42:17;;;;;;;7.70;5.60;;;23.00;86.00;;;;;;6277682;27;89112;-65
2023/05/21 00:45:22;;;;;;;6.18;5.60;;;23.00;86.10;;;;;;6271500;27;88937;-65
2023/05/21 00:48:24;;;;;;;5.82;5.22;;;23.00;86.20;;;;;;6280008;27;89087;-64
2023/05/21 00:51:29;;;;;;;6.10;5.60;;;23.00;86.40;;;;;;6265548;27;88018;-65
2023/05/21 00:54:31;;;;;;;6.88;6.18;;;23.00;86.50;;;;;;6259479;27;89055;-65
2023/05/21 00:57:35;;;;;;;6.65;5.93;;;23.00;86.60;;;;;;6293560;27;89399;-65
2023/05/21 01:00:39;;;;;;;6.60;6.00;;;23.00;86.70;;;;;;6269372;27;88937;-64
2023/05/21 01:03:41;;;;;;;6.60;6.00;;;23.00;86.80;;;;;;6265384;27;89063;-64
2023/05/21 01:06:43;;;;;;;6.60;6.10;;;23.00;86.90;;;;;;6266027;27;89038;-64
2023/05/21 01:09:46;;;;;;;6.47;5.97;;;23.00;87.10;;;;;;6257043;27;89023;-65
2023/05/21 01:12:48;;;;;;;6.90;6.30;;;23.00;87.20;;;;;;6268905;27;88980;-65
2023/05/21 01:15:53;;;;;;;7.32;6.63;;;22.90;87.20;;;;;;6262270;27;90281;-64
2023/05/21 01:18:56;;;;;;;7.03;6.40;;;22.90;87.40;;;;;;6268918;27;89326;-65
2023/05/21 01:22:04;;;;;;;7.70;7.00;;;22.90;87.50;;;;;;6263713;27;87848;-65
2023/05/21 01:25:08;;;;;;;7.80;7.07;;;23.00;87.80;;;;;;6260926;27;88490;-65
2023/05/21 01:28:10;;;;;;;8.15;7.00;;;22.90;87.90;;;;;;6267429;27;88135;-65
2023/05/21 01:31:23;;;;;;;7.50;6.80;;;22.90;88.00;;;;;;6267637;27;90058;-64
2023/05/21 01:34:31;;;;;;;7.40;6.80;;;22.90;88.20;;;;;;6263925;27;89094;-65
2023/05/21 01:37:40;;;;;;;8.40;7.60;;;22.90;88.30;;;;;;6262203;27;90604;-65
2023/05/21 01:40:52;;;;;;;9.70;7.32;;;22.90;88.40;;;;;;6268342;27;89358;-65
2023/05/21 01:43:56;;;;;;;8.50;7.80;;;22.90;88.50;;;;;;6256035;27;88251;-64
2023/05/21 01:46:59;;;;;;;8.63;7.80;;;22.90;88.60;;;;;;6268482;27;89135;-64
2023/05/21 01:50:02;;;;;;;7.80;7.10;;;22.90;88.70;;;;;;6265341;27;89068;-64
2023/05/21 01:53:04;;;;;;;8.32;7.53;;;22.80;88.80;;;;;;6260461;27;88346;-64
2023/05/21 01:56:10;;;;;;;8.45;7.78;;;22.80;88.90;;;;;;6258436;27;87946;-64
2023/05/21 01:59:12;;;;;;;8.32;7.63;;;22.80;89.10;;;;;;6281520;27;89054;-64
2023/05/21 02:02:14;;;;;;;9.00;8.18;;;22.90;89.30;;;;;;6264987;27;90045;-64
2023/05/21 02:05:16;;;;;;;9.48;8.57;;;22.80;89.30;;;;;;6258271;27;89058;-65
2023/05/21 02:08:18;;;;;;;8.95;8.05;;;22.90;89.50;;;;;;6277130;27;87610;-64
2023/05/21 02:11:22;;;;;;;9.13;8.23;;;22.80;89.50;;;;;;6262868;27;88803;-65
2023/05/21 02:14:25;;;;;;;9.00;8.20;;;22.80;89.60;;;;;;6259268;27;89371;-65
2023/05/21 02:17:29;;;;;;;10.38;9.25;;;22.90;89.80;;;;;;6253619;27;89007;-65
2023/05/21 02:20:31;;;;;;;10.23;9.32;;;22.90;89.80;;;;;;6268801;27;89167;-65
2023/05/21 02:23:33;;;;;;;9.75;8.85;;;22.80;90.00;;;;;;6273223;27;90293;-65
2023/05/21 02:26:37;;;;;;;9.80;8.80;;;22.80;90.00;;;;;;6256915;27;89121;-65
2023/05/21 02:29:39;;;;;;;9.73;8.82;;;22.80;90.00;;;;;;6261826;27;89209;-65
2023/05/21 02:32:42;;;;;;;10.50;9.50;;;22.80;90.10;;;;;;6265775;27;90331;-65
2023/05/21 02:35:44;;;;;;;11.07;9.25;;;22.80;90.10;;;;;;6268093;27;88078;-65
2023/05/21 02:38:46;;;;;;;10.02;9.05;;;22.80;90.20;;;;;;6267134;27;87945;-65
2023/05/21 02:41:50;;;;;;;10.18;9.27;;;22.80;90.10;;;;;;6262314;27;88993;-65
2023/05/21 02:44:52;;;;;;;10.15;9.25;;;22.80;90.10;;;;;;6271368;27;89148;-65
2023/05/21 02:47:54;;;;;;;9.75;8.93;;;22.80;90.10;;;;;;6257886;27;89376;-65
2023/05/21 02:50:56;;;;;;;9.90;9.00;;;22.80;90.10;;;;;;6258605;27;89178;-64
2023/05/21 02:53:58;;;;;;;10.30;9.30;;;22.80;90.10;;;;;;6257934;27;87282;-65
2023/05/21 02:57:01;;;;;;;10.65;9.63;;;22.80;90.10;;;;;;6264297;27;89044;-65
2023/05/21 03:00:04;;;;;;;10.18;9.18;;;22.80;90.10;;;;;;6307425;27;89213;-65
2023/05/21 03:03:06;;;;;;;10.32;9.38;;;22.70;90.10;;;;;;6301779;27;89914;-64
2023/05/21 03:06:08;;;;;;;10.00;9.10;;;22.80;90.20;;;;;;6261618;27;88913;-64
2023/05/21 03:09:11;;;;;;;10.55;9.52;;;22.80;90.20;;;;;;6253292;27;89044;-65
2023/05/21 03:12:14;;;;;;;9.93;9.00;;;22.70;90.20;;;;;;6264579;27;88971;-65
2023/05/21 03:15:16;;;;;;;9.90;8.98;;;22.80;90.20;;;;;;6268693;27;89152;-64
2023/05/21 03:18:19;;;;;;;10.10;9.20;;;22.70;90.20;;;;;;6271937;27;88007;-64
2023/05/21 03:21:21;;;;;;;10.00;9.10;;;22.70;90.20;;;;;;6269129;27;88262;-65
2023/05/21 03:24:23;;;;;;;9.40;8.60;;;22.70;90.20;;;;;;6270327;27;88324;-64
2023/05/21 03:27:27;;;;;;;10.25;9.35;;;22.80;90.20;;;;;;6260291;27;89083;-64
2023/05/21 03:30:29;;;;;;;10.38;9.40;;;22.70;90.20;;;;;;6257007;27;89021;-63
2023/05/21 03:33:31;;;;;;;9.85;9.05;;;22.70;90.20;;;;;;6272411;27;89995;-64
2023/05/21 03:36:33;;;;;;;9.82;8.93;;;22.70;90.20;;;;;;6267946;27;89149;-64
2023/05/21 03:39:35;;;;;;;10.30;9.30;;;22.70;90.20;;;;;;6266658;27;89107;-65
2023/05/21 03:42:38;;;;;;;10.68;9.68;;;22.80;90.30;;;;;;6267570;27;87949;-65
2023/05/21 03:45:40;;;;;;;9.95;9.05;;;22.80;90.20;;;;;;6265802;27;88765;-64
2023/05/21 03:48:42;;;;;;;10.65;9.68;;;22.70;90.20;;;;;;6260086;27;88981;-64
2023/05/21 03:51:44;;;;;;;9.98;9.10;;;22.70;90.20;;;;;;6260347;27;89222;-64
2023/05/21 03:54:46;;;;;;;9.55;8.75;;;22.70;90.20;;;;;;6263603;27;87527;-64
2023/05/21 03:57:49;;;;;;;9.80;8.90;;;22.70;90.20;;;;;;6267902;27;89132;-64
2023/05/21 04:00:51;;;;;;;10.13;9.23;;;22.70;90.20;;;;;;6274299;27;89087;-64
2023/05/21 04:03:53;;;;;;;9.80;8.95;;;22.70;90.20;;;;;;6260389;27;89968;-64
2023/05/21 04:06:55;;;;;;;10.05;9.05;;;22.70;90.20;;;;;;6266150;27;87992;-65
2023/05/21 04:09:57;;;;;;;10.60;9.50;;;22.80;90.20;;;;;;6259992;27;89079;-65
2023/05/21 04:13:01;;;;;;;10.40;9.40;;;22.70;90.20;;;;;;6262238;27;89286;-64
2023/05/21 04:16:03;;;;;;;10.68;9.68;;;22.80;90.20;;;;;;6270536;27;89387;-65
2023/05/21 04:19:05;;;;;;;10.63;9.73;;;22.80;90.20;;;;;;6265242;27;89173;-64
2023/05/21 04:22:07;;;;;;;10.20;9.20;;;22.80;90.20;;;;;;6273141;27;89152;-64
2023/05/21 04:25:10;;;;;;;10.27;9.38;;;22.80;90.30;;;;;;6267906;27;88266;-64
2023/05/21 04:28:18;;;;;;;9.90;9.00;;;22.90;90.30;;;;;;6269154;27;89382;-65
2023/05/21 04:31:22;;;;;;;9.60;8.80;;;22.90;90.30;;;;;;6287068;27;89868;-64
2023/05/21 04:34:24;;;;;;;9.85;8.95;;;22.80;90.20;;;;;;6259530;27;88888;-65
2023/05/21 04:37:26;;;;;;;9.77;8.80;;;22.80;90.20;;;;;;6277901;27;89184;-65
2023/05/21 04:40:28;;;;;;;10.18;9.18;;;22.90;90.10;;;;;;6269378;27;89067;-65
2023/05/21 04:43:32;;;;;;;10.15;9.25;;;22.90;90.10;;;;;;6258465;27;89519;-65
2023/05/21 04:46:34;;;;;;;9.13;8.32;;;22.90;90.00;;;;;;6268828;27;88464;-65
2023/05/21 04:49:36;;;;;;;10.20;9.30;;;22.90;90.50;;;;;;6266166;27;89072;-65
2023/05/21 04:52:40;;;;;;;10.27;9.38;;;22.90;90.10;;;;;;6282297;27;89280;-65
2023/05/21 04:55:42;;;;;;;9.25;8.35;;;22.90;90.20;;;;;;6275512;27;88625;-66
2023/05/21 04:58:46;;;;;;;9.77;8.77;;;23.00;90.10;;;;;;6283083;27;88951;-65
2023/05/21 05:01:48;;;;;;;9.80;8.95;;;23.00;90.10;;;;;;6273458;27;89567;-65
2023/05/21 05:04:50;;;;;;;9.13;8.32;;;23.00;90.10;;;;;;6262381;27;90453;-65
2023/05/21 05:07:52;;;;;;;9.20;8.40;;;23.00;90.00;;;;;;6275181;27;88288;-64
2023/05/21 05:10:54;;;;;;;10.27;9.27;;;23.00;90.00;;;;;;6272412;27;89070;-64
2023/05/21 05:13:57;;;;;;;9.23;8.35;;;23.00;90.00;;;;;;6263246;27;87969;-64
2023/05/21 05:16:59;;;;;;;9.57;8.75;;;23.00;90.00;;;;;;6260076;27;88993;-64
2023/05/21 05:20:01;;;;;;;9.30;8.50;;;23.10;90.10;;;;;;6265976;27;89319;-65
2023/05/21 05:23:04;;;;;;;9.13;8.32;;;23.10;90.10;;;;;;6284130;27;89141;-65
2023/05/21 05:26:06;;;;;;;9.38;8.50;;;23.10;90.10;;;;;;6280819;27;88335;-65
2023/05/21 05:29:09;;;;;;;10.05;9.10;;;23.10;90.10;;;;;;6285616;27;89105;-65
2023/05/21 05:32:11;;;;;;;8.93;8.13;;;23.10;90.10;;;;;;6268412;27;89096;-64
2023/05/21 05:35:13;;;;;;;9.30;8.50;;;23.10;90.10;;;;;;6276400;27;90574;-64
2023/05/21 05:38:15;;;;;;;9.20;8.40;;;23.10;90.20;;;;;;6277941;27;89078;-64
2023/05/21 05:41:17;;;;;;;9.20;8.40;;;23.10;90.20;;;;;;6259606;27;88976;-65
2023/05/21 05:44:21;;;;;;;8.43;7.72;;;23.10;90.20;;;;;;6264431;27;89048;-65
2023/05/21 05:47:23;;;;;;;8.95;8.15;;;23.10;90.20;;;;;;6281505;27;89395;-65
2023/05/21 05:50:25;;;;;;;8.85;8.05;;;23.20;90.20;;;;;;6262164;27;89069;-65
2023/05/21 05:53:27;;;;;;;9.52;8.63;;;23.20;90.20;;;;;;6271427;27;89143;-65
2023/05/21 05:56:29;;;;;;;9.15;8.45;;;23.20;90.30;;;;;;6265487;27;88334;-66
2023/05/21 05:59:33;;;;;;;9.05;8.18;;;23.20;90.30;;;;;;6269082;27;89075;-65
2023/05/21 06:02:35;;;;;;;9.30;8.50;;;23.20;90.30;;;;;;6266777;27;89124;-65
2023/05/21 06:05:37;;;;;;;8.98;8.27;;;23.20;90.40;;;;;;6265715;27;90066;-65
2023/05/21 06:08:40;;;;;;;9.27;8.40;;;23.20;90.40;;;;;;6265285;27;88034;-64
2023/05/21 06:11:42;;;;;;;9.27;8.40;;;23.20;90.30;;;;;;6275394;27;89009;-65
2023/05/21 06:14:47;;;;;;;9.00;8.20;;;23.20;90.40;;;;;;6272957;27;89040;-65
2023/05/21 06:17:49;;;;;;;10.48;9.48;;;23.30;90.40;;;;;;6269182;27;89051;-65
2023/05/21 06:20:51;;;;;;;10.10;9.10;;;23.20;90.40;;;;;;6269170;27;89095;-66
2023/05/21 06:23:53;;;;;;;10.13;9.18;;;23.30;90.50;;;;;;6284155;27;89143;-66
2023/05/21 06:26:55;;;;;;;10.65;9.63;;;23.20;90.50;;;;;;6268407;27;86780;-65
2023/05/21 06:29:58;;;;;;;10.40;9.40;;;23.20;90.70;;;;;;6270502;27;89193;-65
2023/05/21 06:33:01;;;;;;;11.10;10.00;;;23.20;90.70;;;;;;6266528;27;89035;-65
2023/05/21 06:36:03;;;;;;;10.70;9.75;;;23.20;91.40;;;;;;6263293;27;89952;-66
2023/05/21 06:39:04;;;;;;;10.48;9.57;;;23.30;92.50;;;;;;6273710;27;88257;-65
2023/05/21 06:42:06;;;;;;;11.20;10.20;;;23.30;91.50;;;;;;6264899;27;89046;-65
2023/05/21 06:45:11;;;;;;;11.52;10.45;;;23.30;91.00;;;;;;6267255;27;87955;-65
2023/05/21 06:48:15;;;;;;;11.13;10.02;;;23.40;91.40;;;;;;6266167;27;89114;-65
2023/05/21 06:51:17;;;;;;;10.45;9.45;;;23.40;92.30;;;;;;6265818;27;89232;-66
2023/05/21 06:54:19;;;;;;;10.00;9.10;;;23.40;91.40;;;;;;6284979;27;89012;-66
2023/05/21 06:57:21;;;;;;;10.02;9.02;;;23.40;91.20;;;;;;6271774;27;88348;-66
2023/05/21 07:00:25;;;;;;;11.02;10.00;;;23.40;91.20;;;;;;6271124;27;88123;-66
2023/05/21 07:03:33;;;;;;;10.05;9.02;;;23.40;91.20;;;;;;6260972;27;88986;-66
2023/05/21 07:06:34;;;;;;;10.98;9.90;;;23.40;91.20;;;;;;6256739;27;90265;-67
2023/05/21 07:09:36;;;;;;;10.20;9.20;;;23.40;91.20;;;;;;6271261;27;89448;-66
2023/05/21 07:12:39;;;;;;;11.65;10.38;;;23.40;91.30;;;;;;6275849;27;89057;-66
2023/05/21 07:15:47;;;;;;;13.73;9.93;;;23.50;91.40;;;;;;6272301;27;89229;-65
2023/05/21 07:18:49;;;;;;;12.30;10.20;;;23.50;92.10;;;;;;6258934;27;87957;-66
2023/05/21 07:21:51;;;;;;;11.23;10.02;;;23.50;92.00;;;;;;6280459;27;88003;-65
2023/05/21 07:24:53;;;;;;;14.68;9.68;;;23.40;92.20;;;;;;6270519;27;89088;-65
2023/05/21 07:27:55;;;;;;;12.80;10.05;;;23.50;92.70;;;;;;6269827;27;87219;-65
2023/05/21 07:30:58;;;;;;;11.73;10.45;;;23.50;93.00;;;;;;6271289;27;89069;-64
2023/05/21 07:34:00;;;;;;;12.15;9.70;;;23.60;92.80;;;;;;6248738;27;89113;-65
2023/05/21 07:37:02;;;;;;;17.42;12.00;;;23.50;92.80;;;;;;6266949;27;90188;-65
2023/05/21 07:40:06;;;;;;;14.90;11.70;;;23.50;93.00;;;;;;6268025;27;89296;-65
2023/05/21 07:43:08;;;;;;;25.33;14.85;;;23.60;94.00;;;;;;6262541;27;89371;-65
2023/05/21 07:46:11;;;;;;;24.63;14.40;;;23.60;96.20;;;;;;6263156;27;89142;-64
2023/05/21 07:49:15;;;;;;;17.00;12.55;;;23.50;96.40;;;;;;6264294;27;89108;-64
2023/05/21 07:52:17;;;;;;;16.77;12.38;;;23.50;96.30;;;;;;6267362;27;89200;-64
2023/05/21 07:55:19;;;;;;;15.18;11.77;;;23.50;96.10;;;;;;6271087;27;89077;-64
2023/05/21 07:58:22;;;;;;;15.90;11.98;;;23.50;96.00;;;;;;6262333;27;87277;-64
2023/05/21 08:01:28;;;;;;;14.30;11.93;;;23.50;96.20;;;;;;6264133;27;89160;-65
2023/05/21 08:04:30;;;;;;;13.13;11.52;;;23.50;96.00;;;;;;6272030;27;89268;-65
2023/05/21 08:07:32;;;;;;;13.45;11.98;;;23.50;95.60;;;;;;6263106;27;90022;-66
2023/05/21 08:10:34;;;;;;;14.55;12.45;;;23.50;95.00;;;;;;6272575;27;88077;-65
2023/05/21 08:13:36;;;;;;;14.55;12.50;;;23.60;94.40;;;;;;6270763;27;89177;-65
2023/05/21 08:16:39;;;;;;;13.68;12.27;;;23.50;93.80;;;;;;6261221;27;89082;-66
2023/05/21 08:19:42;;;;;;;13.45;12.15;;;23.50;94.00;;;;;;6266832;27;89158;-65
2023/05/21 08:22:43;;;;;;;13.75;12.35;;;23.50;94.60;;;;;;6264117;27;89385;-66
2023/05/21 08:25:45;;;;;;;13.00;11.80;;;23.50;94.30;;;;;;6274981;27;89073;-63
2023/05/21 08:28:47;;;;;;;12.70;11.20;;;23.40;94.00;;;;;;6267120;27;88462;-66
2023/05/21 08:31:51;;;;;;;12.25;11.15;;;23.40;94.00;;;;;;6272462;27;89464;-66
2023/05/21 08:34:53;;;;;;;11.93;10.82;;;23.50;93.80;;;;;;6260620;27;88305;-66
2023/05/21 08:37:55;;;;;;;12.07;10.90;;;23.50;93.40;;;;;;6275546;27;90107;-66
2023/05/21 08:40:58;;;;;;;11.48;10.43;;;23.50;93.20;;;;;;6276686;27;89179;-66
2023/05/21 08:44:02;;;;;;;11.73;10.57;;;23.50;92.90;;;;;;6268797;27;89403;-66
2023/05/21 08:47:07;;;;;;;11.45;10.30;;;23.50;92.80;;;;;;6269432;27;88189;-66
2023/05/21 08:50:12;;;;;;;11.40;10.40;;;23.40;92.70;;;;;;6265431;27;88989;-66
2023/05/21 08:53:14;;;;;;;11.10;10.10;;;23.50;92.50;;;;;;6270372;27;89441;-65
2023/05/21 08:56:17;;;;;;;11.35;10.23;;;23.40;92.30;;;;;;6271513;27;91963;-66
2023/05/21 08:59:21;;;;;;;10.32;9.40;;;23.40;92.20;;;;;;6274450;27;88353;-66
2023/05/21 09:02:25;;;;;;;11.35;10.25;;;23.40;92.20;;;;;;6280764;27;89353;-65
2023/05/21 09:05:28;;;;;;;11.32;10.13;;;23.40;92.20;;;;;;6272585;27;89242;-66
2023/05/21 09:08:35;;;;;;;11.18;10.13;;;23.40;91.90;;;;;;6270239;27;89888;-66
2023/05/21 09:11:37;;;;;;;10.23;9.23;;;23.40;91.70;;;;;;6275457;27;89018;-66
2023/05/21 09:14:40;;;;;;;11.55;9.63;;;23.40;91.60;;;;;;6272825;27;89133;-66
2023/05/21 09:17:46;;;;;;;10.63;9.63;;;23.40;91.40;;;;;;6260396;27;89148;-66
2023/05/21 09:20:48;;;;;;;10.57;9.57;;;23.40;91.30;;;;;;6270756;27;87966;-66
2023/05/21 09:23:54;;;;;;;10.45;9.55;;;23.40;91.20;;;;;;6277808;27;89011;-66
2023/05/21 09:26:57;;;;;;;10.18;9.27;;;23.40;91.10;;;;;;6258092;27;88999;-66
2023/05/21 09:30:00;;;;;;;10.38;9.48;;;23.40;90.90;;;;;;6279634;27;88300;-66
2023/05/21 09:33:03;;;;;;;9.93;9.05;;;23.40;90.70;;;;;;6274810;27;89396;-66
2023/05/21 09:36:08;;;;;;;9.70;8.85;;;23.40;90.70;;;;;;6283345;27;89085;-66
2023/05/21 09:39:14;;;;;;;10.45;9.45;;;23.30;90.70;;;;;;6267658;27;90369;-66
2023/05/21 09:42:20;;;;;;;10.00;9.00;;;23.40;90.60;;;;;;6262092;27;90313;-66
2023/05/21 09:45:23;;;;;;;9.10;8.30;;;23.40;90.40;;;;;;6273234;27;88981;-65
2023/05/21 09:48:37;;;;;;;9.10;8.30;;;23.40;90.10;;;;;;6270472;27;89046;-66
2023/05/21 09:51:39;;;;;;;9.40;8.60;;;23.40;90.00;;;;;;6267378;27;88536;-66
2023/05/21 09:54:41;;;;;;;9.50;8.60;;;23.40;90.00;;;;;;6268545;27;89058;-66
2023/05/21 09:57:44;;;;;;;9.40;8.20;;;23.40;90.10;;;;;;6266898;27;89530;-66
2023/05/21 10:00:46;;;;;;;8.93;8.13;;;23.30;90.10;;;;;;6268180;27;88383;-66
2023/05/21 10:03:54;;;;;;;9.18;8.20;;;23.40;90.00;;;;;;6273667;27;89072;-66
2023/05/21 10:06:59;;;;;;;9.15;8.25;;;23.40;89.30;;;;;;6265370;27;87964;-65
2023/05/21 10:10:03;;;;;;;8.93;8.02;;;23.30;88.40;;;;;;6267512;27;90144;-66
2023/05/21 10:13:08;;;;;;;8.73;7.82;;;23.40;87.90;;;;;;6259872;27;89194;-66
2023/05/21 10:16:11;;;;;;;8.77;7.88;;;23.30;87.70;;;;;;6262171;27;89097;-65
2023/05/21 10:19:16;;;;;;;8.95;8.05;;;23.40;88.10;;;;;;6258490;27;89275;-66
2023/05/21 10:22:18;;;;;;;8.88;8.02;;;23.30;87.60;;;;;;6268195;27;89732;-66
2023/05/21 10:25:20;;;;;;;9.60;8.70;;;23.30;87.40;;;;;;6279785;27;89099;-65
2023/05/21 10:28:23;;;;;;;9.23;8.43;;;23.40;87.70;;;;;;6266422;27;90552;-66
2023/05/21 10:31:26;;;;;;;9.35;8.55;;;23.30;88.10;;;;;;6277787;27;88311;-66
2023/05/21 10:34:31;;;;;;;8.93;8.13;;;23.40;88.40;;;;;;6273042;27;88994;-66
2023/05/21 10:37:33;;;;;;;9.07;8.13;;;23.40;88.40;;;;;;6273993;27;89128;-65
2023/05/21 10:40:35;;;;;;;9.45;8.55;;;23.40;87.90;;;;;;6273995;27;90043;-66
2023/05/21 10:43:52;;;;;;;8.30;7.60;;;23.40;87.20;;;;;;6266604;27;88909;-66
2023/05/21 10:47:29;;;;;;;8.18;7.43;;;23.40;86.60;;;;;;6263041;27;88939;-66
2023/05/21 10:50:54;;;;;;;8.88;8.07;;;23.40;86.30;;;;;;6272784;27;89153;-66
2023/05/21 10:54:31;;;;;;;8.50;7.80;;;23.40;86.50;;;;;;6265829;27;89037;-66
2023/05/21 10:58:12;;;;;;;8.88;8.00;;;23.40;86.80;;;;;;6265226;27;89073;-66
2023/05/21 11:01:15;;;;;;;9.13;8.32;;;23.40;87.20;;;;;;6272502;27;89091;-66
2023/05/21 11:04:21;;;;;;;7.93;7.22;;;23.40;87.40;;;;;;6274320;27;88346;-66
2023/05/21 11:07:51;;;;;;;8.90;8.10;;;23.40;87.20;;;;;;6256936;27;89085;-67
2023/05/21 11:10:54;;;;;;;8.77;8.07;;;23.40;87.40;;;;;;6265573;27;89710;-67
2023/05/21 11:13:56;;;;;;;8.75;7.95;;;23.40;87.60;;;;;;6265465;27;90146;-66
2023/05/21 11:16:58;;;;;;;8.68;7.85;;;23.40;87.70;;;;;;6267591;27;89061;-66
2023/05/21 11:20:06;;;;;;;8.50;7.70;;;23.40;87.90;;;;;;6265917;27;89080;-66
2023/05/21 11:23:11;;;;;;;8.48;7.68;;;23.40;87.80;;;;;;6269152;27;89189;-66
2023/05/21 11:26:15;;;;;;;8.43;7.47;;;23.40;88.00;;;;;;6266884;27;89114;-66
2023/05/21 11:29:19;;;;;;;9.05;8.15;;;23.40;87.90;;;;;;6260649;27;89202;-66
2023/05/21 11:32:23;;;;;;;9.23;8.32;;;23.40;87.70;;;;;;6267720;27;89125;-66
2023/05/21 11:35:25;;;;;;;9.13;8.20;;;23.40;87.60;;;;;;6267387;27;88496;-66
2023/05/21 11:38:31;;;;;;;8.50;7.70;;;23.40;87.60;;;;;;6292986;27;89142;-66
2023/05/21 11:41:50;;;;;;;8.70;7.78;;;23.40;87.90;;;;;;6269447;27;89096;-66
2023/05/21 11:44:52;;;;;;;9.13;8.23;;;23.40;87.70;;;;;;6233673;27;90105;-66
2023/05/21 11:47:55;;;;;;;8.88;7.97;;;23.40;87.80;;;;;;6238620;27;89659;-66
2023/05/21 11:50:58;;;;;;;9.18;8.27;;;23.40;87.80;;;;;;6233734;27;89123;-66
2023/05/21 11:54:01;;;;;;;9.10;8.05;;;23.40;87.60;;;;;;6249740;27;89081;-66
2023/05/21 11:57:06;;;;;;;10.95;7.95;;;23.40;87.60;;;;;;6239585;27;88989;-67
2023/05/21 12:00:14;;;;;;;9.60;8.60;;;23.40;88.40;;;;;;6232784;27;89109;-66
2023/05/21 12:03:16;;;;;;;9.10;8.20;;;23.40;89.70;;;;;;6239871;27;89071;-66
2023/05/21 12:06:19;;;;;;;9.35;8.40;;;23.50;88.60;;;;;;6236298;27;88382;-66
2023/05/21 12:09:22;;;;;;;9.52;8.57;;;23.50;88.10;;;;;;6229640;27;89057;-67
2023/05/21 12:12:26;;;;;;;8.85;8.05;;;23.50;88.10;;;;;;6245545;27;88297;-66
2023/05/21 12:15:28;;;;;;;8.80;8.00;;;23.40;88.10;;;;;;6249471;27;89061;-66
2023/05/21 12:18:30;;;;;;;9.20;8.27;;;23.50;88.30;;;;;;6241049;27;87984;-67
2023/05/21 12:21:33;;;;;;;8.82;8.02;;;23.40;88.20;;;;;;6237153;27;89247;-67
2023/05/21 12:24:37;;;;;;;8.75;7.90;;;23.40;88.20;;;;;;6256541;27;89024;-66
2023/05/21 12:27:40;;;;;;;8.75;7.85;;;23.40;87.50;;;;;;6257686;27;88936;-67
2023/05/21 12:30:42;;;;;;;8.90;8.10;;;23.40;87.60;;;;;;6240241;28;89073;-66
2023/05/21 12:33:46;;;;;;;8.65;7.75;;;23.40;88.60;;;;;;6234413;28;89112;-66
2023/05/21 12:36:49;;;;;;;8.65;7.95;;;23.40;87.90;;;;;;6254410;27;87251;-66
2023/05/21 12:39:54;;;;;;;9.02;8.23;;;23.40;88.30;;;;;;6234850;27;89030;-66
2023/05/21 12:42:56;;;;;;;8.98;8.07;;;23.50;88.20;;;;;;6262993;27;89143;-66
2023/05/21 12:45:58;;;;;;;8.77;7.68;;;23.40;87.70;;;;;;6258862;27;90500;-66
2023/05/21 12:49:00;;;;;;;11.20;8.65;;;23.40;87.70;;;;;;6264174;27;89034;-64
2023/05/21 12:52:09;;;;;;;15.05;9.70;;;23.50;90.00;;;;;;6276123;27;88618;-66
2023/05/21 12:55:14;;;;;;;14.27;9.77;;;23.50;91.20;;;;;;6271546;27;89498;-66
2023/05/21 12:58:21;;;;;;;11.85;8.90;;;23.50;91.00;;;;;;6263441;27;89112;-67
2023/05/21 13:01:23;;;;;;;9.57;8.57;;;23.50;91.00;;;;;;6267886;27;89272;-66
2023/05/21 13:04:25;;;;;;;8.68;7.90;;;23.50;90.40;;;;;;6268144;27;89114;-66
2023/05/21 13:07:29;;;;;;;9.82;8.35;;;23.50;90.20;;;;;;6265790;27;88224;-66
2023/05/21 13:10:33;;;;;;;9.38;8.55;;;23.50;90.20;;;;;;6264652;27;89065;-66
2023/05/21 13:13:34;;;;;;;8.80;8.00;;;23.50;90.20;;;;;;6280253;27;88010;-66
2023/05/21 13:16:36;;;;;;;9.05;8.05;;;23.50;90.20;;;;;;6279402;27;90504;-66
2023/05/21 13:19:38;;;;;;;9.10;8.30;;;23.50;90.20;;;;;;6266720;27;89115;-66
2023/05/21 13:22:42;;;;;;;9.75;8.75;;;23.50;89.30;;;;;;6283936;27;87935;-66
2023/05/21 13:25:45;;;;;;;9.95;9.00;;;23.50;89.10;;;;;;6297986;27;89053;-66
2023/05/21 13:28:47;;;;;;;9.80;8.80;;;23.50;89.60;;;;;;6275431;27;89048;-66
2023/05/21 13:31:49;;;;;;;9.27;8.40;;;23.50;89.90;;;;;;6267825;27;89118;-66
2023/05/21 13:34:51;;;;;;;9.02;8.23;;;23.50;90.00;;;;;;6262155;27;89067;-66
2023/05/21 13:37:53;;;;;;;9.45;8.48;;;23.50;90.10;;;;;;6273726;27;89836;-66
2023/05/21 13:40:56;;;;;;;10.75;8.60;;;23.40;90.30;;;;;;6272772;27;89016;-66
2023/05/21 13:43:59;;;;;;;9.60;8.63;;;23.40;90.30;;;;;;6265073;27;89308;-66
2023/05/21 13:47:01;;;;;;;10.80;8.98;;;23.40;90.60;;;;;;6260103;27;90015;-66
2023/05/21 13:50:03;;;;;;;10.68;8.95;;;23.50;90.70;;;;;;6275507;27;89079;-66
2023/05/21 13:53:05;;;;;;;8.93;8.02;;;23.40;90.80;;;;;;6274314;27;89064;-64
2023/05/21 13:56:08;;;;;;;9.98;9.05;;;23.50;90.90;;;;;;6261043;27;89468;-67
2023/05/21 13:59:10;;;;;;;11.75;9.32;;;23.50;91.10;;;;;;6264900;27;89430;-67
2023/05/21 14:02:12;;;;;;;10.68;9.02;;;23.50;91.20;;;;;;6264171;27;89142;-66
2023/05/21 14:05:14;;;;;;;12.02;10.90;;;23.50;91.10;;;;;;6263633;27;89205;-67
2023/05/21 14:08:18;;;;;;;57.10;40.20;;;23.50;91.00;;;;;;6264330;27;88665;-67
2023/05/21 14:11:22;;;;;;;42.25;28.88;;;23.50;91.00;;;;;;6275924;27;89410;-67
2023/05/21 14:14:24;;;;;;;22.42;16.13;;;23.60;90.80;;;;;;6275487;27;89483;-66
2023/05/21 14:17:26;;;;;;;11.23;10.23;;;23.50;90.60;;;;;;6268839;27;90132;-66
2023/05/21 14:20:28;;;;;;;11.68;10.48;;;23.60;90.60;;;;;;6269791;27;89932;-66
2023/05/21 14:23:30;;;;;;;10.60;9.50;;;23.60;90.30;;;;;;6268856;27;89605;-68
2023/05/21 14:26:35;;;;;;;22.98;18.65;;;23.60;90.20;;;;;;6264146;27;89085;-67
2023/05/21 14:29:37;;;;;;;15.23;13.55;;;23.60;89.80;;;;;;6265283;27;89064;-67
2023/05/21 14:32:39;;;;;;;17.05;14.13;;;23.60;89.60;;;;;;6263801;27;89125;-67
2023/05/21 14:35:42;;;;;;;13.73;12.32;;;23.60;89.30;;;;;;6258804;27;90380;-66
2023/05/21 14:38:44;;;;;;;10.95;9.93;;;23.60;89.10;;;;;;6267138;27;88414;-66
2023/05/21 14:41:48;;;;;;;9.43;8.52;;;23.60;88.80;;;;;;6273587;27;89021;-67
2023/05/21 14:44:50;;;;;;;9.98;8.18;;;23.60;87.60;;;;;;6266004;27;89090;-66
2023/05/21 14:47:52;;;;;;;9.27;8.07;;;23.60;87.10;;;;;;6270067;27;89944;-66
2023/05/21 14:50:54;;;;;;;9.10;8.20;;;23.60;87.60;;;;;;6273388;27;88208;-66
2023/05/21 14:53:56;;;;;;;8.80;8.00;;;23.60;87.70;;;;;;6265350;27;89402;-67
2023/05/21 14:56:59;;;;;;;8.52;7.78;;;23.60;87.90;;;;;;6262262;27;89049;-66
2023/05/21 15:00:01;;;;;;;9.60;8.18;;;23.70;87.60;;;;;;6260881;27;89069;-66
2023/05/21 15:03:27;;;;;;;8.55;7.75;;;23.60;87.70;;;;;;6270966;27;89079;-66
2023/05/21 15:06:29;;;;;;;8.50;7.70;;;23.60;87.20;;;;;;6279851;27;89100;-67
2023/05/21 15:09:31;;;;;;;8.40;7.53;;;23.60;87.20;;;;;;6277629;27;88569;-67
2023/05/21 15:12:35;;;;;;;7.97;7.18;;;23.60;86.60;;;;;;6278166;27;89099;-67
2023/05/21 15:15:39;;;;;;;8.40;7.63;;;23.60;85.90;;;;;;6268170;27;89063;-66
2023/05/21 15:18:42;;;;;;;10.40;7.57;;;23.60;85.50;;;;;;6260958;27;90159;-66
2023/05/21 15:21:44;;;;;;;9.77;7.60;;;23.60;86.70;;;;;;6273620;27;89271;-67
2023/05/21 15:24:46;;;;;;;8.88;8.07;;;23.60;88.20;;;;;;6270608;27;89271;-67
2023/05/21 15:27:49;;;;;;;8.50;7.70;;;23.60;89.00;;;;;;6260791;27;89357;-67
2023/05/21 15:30:51;;;;;;;9.02;8.13;;;23.60;95.20;;;;;;6274971;27;87983;-67
2023/05/21 15:33:53;;;;;;;9.68;8.15;;;23.70;99.90;;;;;;6276883;27;89248;-69
2023/05/21 15:36:56;;;;;;;8.52;7.63;;;23.70;99.20;;;;;;6278461;27;89165;-65
2023/05/21 15:39:58;;;;;;;8.43;7.53;;;23.80;99.70;;;;;;6276375;27;88316;-66
2023/05/21 15:43:02;;;;;;;8.75;7.82;;;23.80;94.00;;;;;;6268377;27;89119;-66
2023/05/21 15:46:04;;;;;;;8.68;7.80;;;23.90;94.80;;;;;;6268483;27;90175;-65
2023/05/21 15:49:06;;;;;;;8.32;7.47;;;24.00;98.10;;;;;;6266928;27;89700;-65